HOURLY OBS INDEX

065

Central Western Slopes - south

COWRA AIRPORT AWS

Site: 065111
Alt: 300.4m
5km SW of COWRA


  Time     Wind        Temp  DP   Baro     Rain since   Rain past  Vis(m), Cloud(base in m), Weather
  local        km/h                         9am  last   hr   10m    
Sun 12:00  WNW 20/ 26  16.6  6.1  1023.4    0.2   0.0   0.0   0.0   ----- 
Sun 12:30  WNW 20/ 28  17.0  4.3  1023.1    0.2   0.0   0.0   0.0   ----- 
Sun 13:00  WNW 20/ 30  17.7  5.9  1022.4    0.2   0.0   0.0   0.0   ----- 
Sun 13:30    W 24/ 30  17.8  5.1  1022.1    0.2   0.0   0.0   0.0   ----- 
Sun 14:00   NW 17/ 20  18.0  3.9  1021.7    0.2   0.0   0.0   0.0   ----- 
Sun 14:30  WNW 19/ 26  18.0  5.6  1021.2    0.2   0.0   0.0   0.0   ----- 
Sun 15:00   NW 17/ 30  18.2  5.4  1020.7    0.2   0.0   0.0   0.0   ----- 
Sun 15:30  WNW 19/ 26  18.1  5.0  1020.3    0.2   0.0   0.0   0.0   ----- 
Sun 16:00   NW 15/ 20  17.8  5.7  1020.1    0.2   0.0   0.0   0.0   ----- 
Sun 16:30    W 22/ 28  17.5  4.1  1020.2    0.2   0.0   0.0   0.0   ----- 
Sun 17:00  WNW 13/ 17  17.2  6.1  1020.5    0.2   0.0   0.0   0.0   ----- 

DUBBO AIRPORT AWS

Site: 065070
Alt: 284.0m
4km NW of DUBBO


  Time     Wind        Temp  DP   Baro     Rain since   Rain past  Vis(m), Cloud(base in m), Weather
  local        km/h                         9am  last   hr   10m    
Sun 12:00  WSW 15/ 26  17.7  1.7  1024.3    0.2   0.0   0.2   0.0   10000 
Sun 12:30   SW  9/ 19  18.8  3.4  1023.8    0.2   0.0   0.0   0.0   10000 
Sun 13:00    W 11/ 20  19.0  2.4  1023.2    0.2   0.0   0.0   0.0   10000 
Sun 13:30   NW  6/ 13  19.6  2.0  1022.6    0.2   0.0   0.0   0.0   10000 
Sun 14:00  WNW 13/ 20  19.8  3.5  1022.2    0.2   0.0   0.0   0.0   10000 
Sun 14:30    W 13/ 19  20.0  2.4  1021.9    0.2   0.0   0.0   0.0   10000 
Sun 15:00  WSW 13/ 22  20.1  3.3  1021.6    0.2   0.0   0.0   0.0   10000 
Sun 15:30   SW 13/ 20  19.9  3.6  1021.4    0.2   0.0   0.0   0.0   10000 
Sun 16:00  WNW 15/ 20  20.1  2.9  1021.2    0.2   0.0   0.0   0.0   10000 
Sun 16:30    W 15/ 24  19.2  1.7  1021.1    0.2   0.0   0.0   0.0   10000 
Sun 17:00    W 11/ 15  18.6  2.4  1021.3    0.2   0.0   0.0   0.0   10000 

FORBES AIRPORT AWS

Site: 065103
Alt: 230.4m
34km SW of PARKES


  Time     Wind        Temp  DP   Baro     Rain since   Rain past  Vis(m), Cloud(base in m), Weather
  local        km/h                         9am  last   hr   10m    
Sun 12:00    W 11/ 17  18.6  4.4  1023.5    0.0   0.0   0.0   0.0   ----- 
Sun 12:30    W 15/ 22  18.8  3.4  1023.1    0.0   0.0   0.0   0.0   ----- 
Sun 13:00    W 13/ 24  19.3  4.6  1022.6    0.0   0.0   0.0   0.0   ----- 
Sun 13:30    W 15/ 24  19.2  3.0  1022.1    0.0   0.0   0.0   0.0   ----- 
Sun 14:00    W 15/ 20  19.2  3.0  1021.7    0.0   0.0   0.0   0.0   ----- 
Sun 14:30    W 15/ 26  19.4  3.2  1021.1    0.0   0.0   0.0   0.0   ----- 
Sun 15:00    W 15/ 20  19.4  2.7  1020.6    0.0   0.0   0.0   0.0   ----- 
Sun 15:30    W 13/ 20  19.6  3.3  1020.4    0.0   0.0   0.0   0.0   ----- 
Sun 16:00    W  9/ 19  19.6  2.5  1020.2    0.0   0.0   0.0   0.0   ----- 
Sun 16:30    W 13/ 20  19.0  2.4  1020.2    0.0   0.0   0.0   0.0   ----- 
Sun 17:00    W  7/ 11  18.7  4.8  1020.3    0.0   0.0   0.0   0.0   ----- 

PARKES AIRPORT AWS

Site: 065068
Alt: 323.3m
7km E of PARKES


  Time     Wind        Temp  DP   Baro     Rain since   Rain past  Vis(m), Cloud(base in m), Weather
  local        km/h                         9am  last   hr   10m    
Sun 12:00  WNW 13/ 20  17.1  7.5  1024.1    0.0   0.0   0.0   0.0   10000 
Sun 12:30  WNW 11/ 19  17.0  4.3  1023.6    0.0   0.0   0.0   0.0   10000 
Sun 13:00  WNW 17/ 26  17.4  6.3  1023.0    0.0   0.0   0.0   0.0   10000 
Sun 13:30   NW 13/ 19  17.8  6.0  1022.6    0.0   0.0   0.0   0.0   10000 
Sun 14:00    W 15/ 20  18.1  4.7  1022.2    0.0   0.0   0.0   0.0   10000 
Sun 14:30   NW 17/ 22  18.4  7.2  1021.7    0.0   0.0   0.0   0.0   10000|SC1830 
Sun 15:00  WNW 17/ 24  18.1  4.3  1021.3    0.0   0.0   0.0   0.0   10000 
Sun 15:30   NW 17/ 24  18.1  5.0  1020.9    0.0   0.0   0.0   0.0   10000 
Sun 16:00  WNW 13/ 17  18.3  6.2  1020.7    0.0   0.0   0.0   0.0   10000 
Sun 16:30   NW 11/ 17  17.8  7.0  1020.7    0.0   0.0   0.0   0.0   10000 
Sun 17:00   NW  9/ 13  17.0  7.9  1020.8    0.0   0.0   0.0   0.0   10000